Time;durP1;ratioP1;P1;durP2;ratioP2;P2;SDS_P1;SDS_P2;PMS_P1;PMS_P2;Temp;Humidity;BMP_temperature;BMP_pressure;BME280_temperature;BME280_humidity;BME280_pressure;Samples;Min_cycle;Max_cycle;Signal;HPM_P1;HPM_P2
2022/02/22 00:00:28;;;;;;;6.10;1.20;;;6.50;99.90;;;;;;5068967;28;20371;-54
2022/02/22 00:02:53;;;;;;;6.80;1.40;;;6.40;99.90;;;;;;5069318;28;20394;-55
2022/02/22 00:05:19;;;;;;;7.90;1.30;;;6.40;99.90;;;;;;5068808;28;20410;-54
2022/02/22 00:07:45;;;;;;;7.77;1.40;;;6.40;99.90;;;;;;5069670;28;20448;-55
2022/02/22 00:10:14;;;;;;;9.93;1.70;;;6.40;99.90;;;;;;5068661;28;20410;-56
2022/02/22 00:12:41;;;;;;;12.50;1.50;;;6.30;99.90;;;;;;5067050;28;20893;-54
2022/02/22 00:15:08;;;;;;;9.32;1.58;;;6.30;99.90;;;;;;5069186;28;20421;-58
2022/02/22 00:17:34;;;;;;;7.45;1.40;;;6.30;99.90;;;;;;5069116;28;20432;-55
2022/02/22 00:20:01;;;;;;;6.40;1.42;;;6.30;99.90;;;;;;5069270;28;20392;-54
2022/02/22 00:22:27;;;;;;;5.97;1.38;;;6.20;99.90;;;;;;5068707;28;20491;-56
2022/02/22 00:24:52;;;;;;;7.40;1.60;;;6.10;99.90;;;;;;5069417;28;20801;-54
2022/02/22 00:27:18;;;;;;;6.57;1.50;;;6.10;99.90;;;;;;5068672;28;20396;-55
2022/02/22 00:29:44;;;;;;;6.83;1.20;;;6.10;99.90;;;;;;5069227;28;20416;-55
2022/02/22 00:32:09;;;;;;;7.10;1.20;;;6.10;99.90;;;;;;5068905;28;20395;-60
2022/02/22 00:34:35;;;;;;;11.83;1.80;;;6.10;99.90;;;;;;5069115;28;20386;-56
2022/02/22 00:37:01;;;;;;;7.85;2.00;;;6.10;99.90;;;;;;5069142;28;20406;-55
2022/02/22 00:39:26;;;;;;;8.00;1.40;;;6.10;99.90;;;;;;5068536;28;20384;-55
2022/02/22 00:41:52;;;;;;;8.57;1.33;;;6.20;99.90;;;;;;5068857;28;20418;-55
2022/02/22 00:44:17;;;;;;;8.35;1.40;;;7.30;99.90;;;;;;5068104;28;20376;-55
2022/02/22 00:46:43;;;;;;;6.27;1.40;;;6.10;99.90;;;;;;5069219;28;20384;-55
2022/02/22 00:49:09;;;;;;;7.93;1.40;;;6.10;99.90;;;;;;5068531;28;20387;-59
2022/02/22 00:51:35;;;;;;;7.50;1.70;;;6.10;99.90;;;;;;5068212;28;20403;-54
2022/02/22 00:54:01;;;;;;;9.32;1.70;;;6.10;99.90;;;;;;5056477;28;20394;-56
2022/02/22 00:56:27;;;;;;;7.80;1.87;;;6.80;99.90;;;;;;5071918;28;20579;-55
2022/02/22 00:58:52;;;;;;;6.32;1.40;;;6.10;99.90;;;;;;5073127;28;20875;-54
2022/02/22 01:01:18;;;;;;;8.15;2.00;;;7.30;99.90;;;;;;5071835;28;20391;-55
2022/02/22 01:03:44;;;;;;;7.73;1.63;;;6.00;99.90;;;;;;5072920;28;20458;-55
2022/02/22 01:06:10;;;;;;;11.73;2.00;;;6.00;99.90;;;;;;5072493;28;20891;-58
2022/02/22 01:08:36;;;;;;;5.18;1.38;;;6.10;99.90;;;;;;5072572;28;20419;-56
2022/02/22 01:11:03;;;;;;;10.10;2.22;;;6.10;99.90;;;;;;5072787;28;20492;-55
2022/02/22 01:13:28;;;;;;;9.82;1.80;;;6.20;99.90;;;;;;5071896;28;20379;-55
2022/02/22 01:15:54;;;;;;;8.73;1.20;;;6.30;99.90;;;;;;5072613;28;20388;-55
2022/02/22 01:18:21;;;;;;;8.60;1.70;;;6.10;99.90;;;;;;5071555;28;20443;-58
2022/02/22 01:20:46;;;;;;;7.60;1.70;;;5.90;99.90;;;;;;5072712;28;20411;-54
2022/02/22 01:23:12;;;;;;;9.23;2.10;;;6.00;99.90;;;;;;5069973;28;20399;-55
2022/02/22 01:25:37;;;;;;;7.18;1.55;;;5.90;99.90;;;;;;5072498;28;20931;-55
2022/02/22 01:28:03;;;;;;;7.50;1.60;;;5.90;99.90;;;;;;5072266;28;20395;-54
2022/02/22 01:30:29;;;;;;;9.17;1.70;;;5.90;99.90;;;;;;5071786;28;20903;-54
2022/02/22 01:32:54;;;;;;;9.40;1.58;;;5.70;99.90;;;;;;5062957;28;20398;-54
2022/02/22 01:35:20;;;;;;;10.23;1.50;;;5.70;99.90;;;;;;5067191;28;20388;-54
2022/02/22 01:37:45;;;;;;;6.03;1.20;;;5.50;99.90;;;;;;5072034;28;20399;-54
2022/02/22 01:40:12;;;;;;;7.80;1.60;;;5.50;99.90;;;;;;5071326;28;20384;-58
2022/02/22 01:42:37;;;;;;;7.15;1.98;;;5.60;99.90;;;;;;5072166;28;20467;-54
2022/02/22 01:45:04;;;;;;;9.23;2.33;;;5.50;99.90;;;;;;5068702;28;20462;-54
2022/02/22 01:47:30;;;;;;;8.53;2.07;;;5.50;99.90;;;;;;5071279;28;20392;-54
2022/02/22 01:49:56;;;;;;;10.60;2.00;;;5.60;99.90;;;;;;5071975;28;20466;-54
2022/02/22 01:52:21;;;;;;;7.20;1.60;;;5.60;99.90;;;;;;5070873;28;20441;-54
2022/02/22 01:54:47;;;;;;;6.23;2.00;;;5.50;99.90;;;;;;5072073;28;20372;-54
2022/02/22 01:57:16;;;;;;;7.97;1.97;;;5.40;99.90;;;;;;5071021;28;20384;-55
2022/02/22 01:59:42;;;;;;;11.10;1.90;;;5.40;99.90;;;;;;5062051;28;20745;-56
2022/02/22 02:02:07;;;;;;;9.20;1.90;;;6.20;99.90;;;;;;5072001;28;20384;-55
2022/02/22 02:04:33;;;;;;;5.63;1.40;;;5.30;99.90;;;;;;5071096;28;20824;-54
2022/02/22 02:07:00;;;;;;;12.93;1.80;;;5.20;99.90;;;;;;5070736;28;20792;-54
2022/02/22 02:09:25;;;;;;;6.53;1.80;;;5.20;99.90;;;;;;5068079;28;20715;-54
2022/02/22 02:11:59;;;;;;;7.13;1.80;;;5.20;99.90;;;;;;5071702;28;20493;-54
2022/02/22 02:14:26;;;;;;;6.60;1.73;;;5.20;99.90;;;;;;5067953;28;20525;-54
2022/02/22 02:16:56;;;;;;;10.38;2.13;;;5.20;99.90;;;;;;5071587;28;20390;-55
2022/02/22 02:19:22;;;;;;;6.97;1.70;;;5.30;99.90;;;;;;5071072;28;20455;-54
2022/02/22 02:21:49;;;;;;;8.52;2.08;;;5.20;99.90;;;;;;5067947;28;20443;-54
2022/02/22 02:24:20;;;;;;;10.05;2.47;;;5.90;99.90;;;;;;5069096;28;20376;-54
2022/02/22 02:26:46;;;;;;;9.75;1.60;;;5.20;99.90;;;;;;5068892;28;20430;-54
2022/02/22 02:29:15;;;;;;;8.63;2.13;;;5.20;99.90;;;;;;5060942;28;20387;-58
2022/02/22 02:31:42;;;;;;;8.88;2.00;;;5.20;99.90;;;;;;5070898;28;20407;-56
2022/02/22 02:34:11;;;;;;;8.07;1.60;;;5.40;99.90;;;;;;5068897;28;20415;-54
2022/02/22 02:36:38;;;;;;;6.10;1.40;;;5.20;99.90;;;;;;5071021;28;20883;-55
2022/02/22 02:39:06;;;;;;;6.60;1.40;;;5.20;99.90;;;;;;5070852;28;20387;-56
2022/02/22 02:41:31;;;;;;;6.00;1.55;;;5.20;99.90;;;;;;5070325;28;20457;-55
2022/02/22 02:44:10;;;;;;;8.60;1.70;;;5.30;99.90;;;;;;5070905;28;20764;-54
2022/02/22 02:46:36;;;;;;;5.72;1.88;;;5.30;99.90;;;;;;5070835;28;20376;-54
2022/02/22 02:49:03;;;;;;;7.68;1.50;;;5.30;99.90;;;;;;5071555;28;20394;-54
2022/02/22 02:51:29;;;;;;;5.55;1.38;;;5.30;99.90;;;;;;5061203;28;20504;-53
2022/02/22 02:53:55;;;;;;;8.80;2.90;;;5.50;99.90;;;;;;5053404;28;20485;-54
2022/02/22 02:56:23;;;;;;;6.80;1.60;;;5.30;99.90;;;;;;5070117;28;20749;-54
2022/02/22 02:58:52;;;;;;;9.80;2.08;;;5.20;99.90;;;;;;5060935;28;20382;-54
2022/02/22 03:01:19;;;;;;;7.78;1.95;;;5.20;99.90;;;;;;5050218;28;20385;-54
2022/02/22 03:03:45;;;;;;;8.83;2.13;;;5.20;99.90;;;;;;5051089;28;20494;-54
2022/02/22 03:06:11;;;;;;;9.07;1.70;;;5.20;99.90;;;;;;5050963;28;20851;-57
2022/02/22 03:08:37;;;;;;;6.95;1.30;;;5.30;99.90;;;;;;5050508;28;20855;-54
2022/02/22 03:11:02;;;;;;;8.80;1.40;;;5.40;99.90;;;;;;5050859;28;20416;-54
2022/02/22 03:13:29;;;;;;;6.53;1.63;;;5.50;99.90;;;;;;5050298;28;20386;-53
2022/02/22 03:15:55;;;;;;;9.52;2.30;;;5.50;99.90;;;;;;5050802;28;20409;-54
2022/02/22 03:18:20;;;;;;;9.33;1.70;;;5.60;99.90;;;;;;5048553;28;20440;-53
2022/02/22 03:20:46;;;;;;;7.70;2.40;;;5.70;99.90;;;;;;5050909;28;20840;-54
2022/02/22 03:23:12;;;;;;;7.20;1.60;;;5.70;99.90;;;;;;5050460;28;20420;-58
2022/02/22 03:25:37;;;;;;;10.70;2.83;;;5.60;99.90;;;;;;5059518;28;20400;-54
2022/02/22 03:28:07;;;;;;;7.90;2.07;;;5.80;99.90;;;;;;5050383;28;20883;-54
2022/02/22 03:30:33;;;;;;;10.05;1.90;;;5.50;99.90;;;;;;5049656;28;20633;-54
2022/02/22 03:32:59;;;;;;;6.78;1.25;;;5.40;99.90;;;;;;5060590;28;20896;-54
2022/02/22 03:35:25;;;;;;;7.05;1.77;;;5.30;99.90;;;;;;5069551;28;20380;-54
2022/02/22 03:37:50;;;;;;;6.47;1.70;;;5.20;99.90;;;;;;5070233;28;20457;-53
2022/02/22 03:40:17;;;;;;;7.07;1.77;;;6.60;99.90;;;;;;5069396;28;20395;-54
2022/02/22 03:42:44;;;;;;;6.82;1.80;;;5.20;99.90;;;;;;5070197;28;20394;-54
2022/02/22 03:45:14;;;;;;;6.40;1.70;;;6.30;99.90;;;;;;5070083;28;20376;-54
2022/02/22 03:47:41;;;;;;;8.35;2.30;;;5.10;99.90;;;;;;5069726;28;20422;-53
2022/02/22 03:50:10;;;;;;;10.15;2.10;;;5.20;99.90;;;;;;5070150;28;20440;-56
2022/02/22 03:52:36;;;;;;;9.32;2.00;;;5.20;99.90;;;;;;5069271;28;20395;-53
2022/02/22 03:55:03;;;;;;;4.63;1.50;;;5.20;99.90;;;;;;5069745;28;20881;-54
2022/02/22 03:57:29;;;;;;;9.27;2.03;;;5.00;99.90;;;;;;5069260;28;20421;-54
2022/02/22 03:59:54;;;;;;;8.20;2.50;;;5.10;99.90;;;;;;5069713;28;20380;-54
2022/02/22 04:02:20;;;;;;;8.73;2.63;;;5.00;99.90;;;;;;5068868;28;20500;-54
2022/02/22 04:04:47;;;;;;;8.23;2.10;;;5.00;99.90;;;;;;5069723;28;20380;-55
2022/02/22 04:07:13;;;;;;;8.95;2.10;;;4.90;99.90;;;;;;5069600;28;20372;-57
2022/02/22 04:09:38;;;;;;;8.45;2.50;;;5.10;99.90;;;;;;5069671;28;20530;-53
2022/02/22 04:12:04;;;;;;;8.55;2.17;;;4.80;99.90;;;;;;5070136;28;20384;-55
2022/02/22 04:14:30;;;;;;;9.90;2.20;;;4.70;99.90;;;;;;5069536;28;20380;-53
2022/02/22 04:16:55;;;;;;;7.88;1.90;;;4.60;99.90;;;;;;5064632;28;20401;-53
2022/02/22 04:19:21;;;;;;;8.80;2.20;;;4.60;99.90;;;;;;5057476;28;20888;-54
2022/02/22 04:21:47;;;;;;;10.35;2.50;;;4.60;99.90;;;;;;5059178;28;20410;-54
2022/02/22 04:24:12;;;;;;;8.70;2.80;;;4.80;99.90;;;;;;5049560;28;20378;-58
2022/02/22 04:26:38;;;;;;;8.87;2.80;;;4.80;99.90;;;;;;5049189;28;20816;-53
2022/02/22 04:29:04;;;;;;;8.60;2.72;;;5.70;99.90;;;;;;5048925;28;20373;-53
2022/02/22 04:31:38;;;;;;;8.98;3.40;;;5.00;99.90;;;;;;5058941;28;20885;-53
2022/02/22 04:34:07;;;;;;;10.68;2.72;;;5.00;99.90;;;;;;5069308;28;20386;-54
2022/02/22 04:36:33;;;;;;;8.90;2.97;;;4.90;99.90;;;;;;5068605;28;20531;-54
2022/02/22 04:38:59;;;;;;;11.23;3.28;;;4.90;99.90;;;;;;5067269;28;20402;-53
2022/02/22 04:41:25;;;;;;;8.27;2.50;;;5.90;99.90;;;;;;5064416;28;20833;-54
2022/02/22 04:43:51;;;;;;;9.03;2.60;;;5.80;99.90;;;;;;5069313;28;20422;-53
2022/02/22 04:46:16;;;;;;;9.45;2.80;;;4.80;99.90;;;;;;5068465;28;20383;-58
2022/02/22 04:48:42;;;;;;;10.07;2.55;;;4.70;99.90;;;;;;5068992;28;20482;-54
2022/02/22 04:51:08;;;;;;;10.53;3.03;;;5.20;99.90;;;;;;5069224;28;21238;-53
2022/02/22 04:53:33;;;;;;;7.05;2.30;;;4.60;99.90;;;;;;5068298;28;20550;-54
2022/02/22 04:55:59;;;;;;;6.93;2.22;;;4.60;99.90;;;;;;5069246;28;20432;-56
2022/02/22 04:58:25;;;;;;;6.57;2.30;;;4.60;99.90;;;;;;5068481;28;20722;-54
2022/02/22 05:00:51;;;;;;;8.05;2.90;;;4.60;99.90;;;;;;5066984;28;20406;-55
2022/02/22 05:03:17;;;;;;;9.95;3.30;;;4.80;99.90;;;;;;5065877;28;20390;-58
2022/02/22 05:05:43;;;;;;;7.53;2.85;;;4.50;99.90;;;;;;5078403;28;20405;-54
2022/02/22 05:08:09;;;;;;;7.65;2.80;;;4.50;99.90;;;;;;5089168;28;20385;-54
2022/02/22 05:10:34;;;;;;;6.30;2.40;;;6.00;99.90;;;;;;5071490;28;20407;-57
2022/02/22 05:13:00;;;;;;;12.20;3.60;;;4.50;99.90;;;;;;5067502;28;20449;-54
2022/02/22 05:15:26;;;;;;;10.00;2.80;;;4.50;99.90;;;;;;5064275;28;20545;-54
2022/02/22 05:17:52;;;;;;;7.60;2.73;;;4.50;99.90;;;;;;5066869;28;20545;-54
2022/02/22 05:20:18;;;;;;;9.25;3.22;;;4.60;99.90;;;;;;5059234;28;20956;-55
2022/02/22 05:22:45;;;;;;;9.10;2.70;;;6.20;99.90;;;;;;5069581;28;20482;-54
2022/02/22 05:25:12;;;;;;;12.15;2.80;;;4.50;99.90;;;;;;5068587;28;20474;-54
2022/02/22 05:27:39;;;;;;;8.40;2.60;;;4.60;99.90;;;;;;5048665;28;20411;-54
2022/02/22 05:30:05;;;;;;;7.73;2.63;;;4.50;99.90;;;;;;5066731;28;20404;-54
2022/02/22 05:32:32;;;;;;;10.07;3.10;;;4.50;99.90;;;;;;5068029;28;20380;-56
2022/02/22 05:34:58;;;;;;;7.50;2.60;;;4.50;99.90;;;;;;5068837;28;20376;-54
2022/02/22 05:37:25;;;;;;;7.80;2.58;;;4.50;99.90;;;;;;5066586;28;20396;-54
2022/02/22 05:39:51;;;;;;;7.43;2.50;;;4.40;99.90;;;;;;5058117;28;20394;-55
2022/02/22 05:42:17;;;;;;;8.10;3.00;;;6.00;99.90;;;;;;5070440;28;20433;-57
2022/02/22 05:44:43;;;;;;;7.22;2.30;;;4.40;99.90;;;;;;5072097;28;20508;-54
2022/02/22 05:47:09;;;;;;;5.10;2.03;;;4.30;99.90;;;;;;5064747;28;20405;-55
2022/02/22 05:49:34;;;;;;;9.20;2.63;;;4.30;99.90;;;;;;5053617;28;20394;-54
2022/02/22 05:52:00;;;;;;;7.72;2.55;;;4.30;99.90;;;;;;5057161;28;20511;-55
2022/02/22 05:54:26;;;;;;;9.00;2.80;;;4.30;99.90;;;;;;5071091;28;20396;-54
2022/02/22 05:56:52;;;;;;;9.17;3.00;;;4.30;99.90;;;;;;5063373;28;20394;-55
2022/02/22 05:59:17;;;;;;;8.25;2.13;;;4.30;99.90;;;;;;5071416;28;20392;-58
2022/02/22 06:01:43;;;;;;;8.90;2.60;;;3.70;99.90;;;;;;5072001;28;20380;-54
2022/02/22 06:04:12;;;;;;;10.70;3.03;;;4.30;99.90;;;;;;5077516;28;20824;-53
2022/02/22 06:06:38;;;;;;;13.85;3.10;;;4.30;99.90;;;;;;5091616;28;20374;-54
2022/02/22 06:09:04;;;;;;;6.17;2.80;;;4.30;99.90;;;;;;5060412;28;20402;-53
2022/02/22 06:11:30;;;;;;;15.17;3.70;;;4.30;99.90;;;;;;5064285;28;20409;-54
2022/02/22 06:13:55;;;;;;;8.38;2.85;;;4.30;99.90;;;;;;5052446;28;20440;-53
2022/02/22 06:16:21;;;;;;;8.73;2.80;;;4.30;99.90;;;;;;5057318;28;20877;-53
2022/02/22 06:18:47;;;;;;;11.05;2.50;;;4.30;99.90;;;;;;5071300;28;20953;-54
2022/02/22 06:21:13;;;;;;;9.02;2.80;;;4.30;99.90;;;;;;5069910;28;20403;-53
2022/02/22 06:23:38;;;;;;;11.47;3.10;;;4.30;99.90;;;;;;5071075;28;21125;-56
2022/02/22 06:26:04;;;;;;;10.13;3.30;;;4.30;99.90;;;;;;5071999;28;20384;-53
2022/02/22 06:28:32;;;;;;;13.50;2.85;;;4.60;99.90;;;;;;5070625;28;20390;-53
2022/02/22 06:30:57;;;;;;;11.70;3.20;;;4.30;99.90;;;;;;5071626;28;20491;-53
2022/02/22 06:33:23;;;;;;;8.75;3.45;;;5.20;99.90;;;;;;5070756;28;20529;-53
2022/02/22 06:35:49;;;;;;;16.10;3.42;;;5.70;99.90;;;;;;5071072;28;20842;-53
2022/02/22 06:38:14;;;;;;;6.17;2.60;;;4.50;99.90;;;;;;5071265;28;20725;-54
2022/02/22 06:40:40;;;;;;;12.70;3.67;;;4.60;99.90;;;;;;5049267;28;20413;-58
2022/02/22 06:43:05;;;;;;;10.93;3.60;;;4.70;99.90;;;;;;5063283;28;20419;-53
2022/02/22 06:45:32;;;;;;;12.82;3.35;;;4.80;99.90;;;;;;5056245;28;20520;-53
2022/02/22 06:47:57;;;;;;;9.70;3.08;;;4.90;99.90;;;;;;5050742;28;20389;-53
2022/02/22 06:50:24;;;;;;;10.43;3.60;;;6.50;99.90;;;;;;5050094;28;20424;-55
2022/02/22 06:52:51;;;;;;;10.88;3.55;;;5.00;99.90;;;;;;5050855;28;20408;-55
2022/02/22 06:55:17;;;;;;;8.80;3.60;;;5.00;99.90;;;;;;5051135;28;20388;-59
2022/02/22 06:57:53;;;;;;;11.27;4.00;;;5.00;99.90;;;;;;5050485;28;20424;-54
2022/02/22 07:00:21;;;;;;;9.52;3.13;;;4.90;99.90;;;;;;5051041;28;20386;-58
2022/02/22 07:02:47;;;;;;;10.95;2.80;;;5.90;99.90;;;;;;5051656;28;20377;-55
2022/02/22 07:05:13;;;;;;;15.50;4.07;;;4.80;99.90;;;;;;5057942;28;20404;-55
2022/02/22 07:07:39;;;;;;;10.50;3.20;;;4.80;99.90;;;;;;5063757;28;20919;-55
2022/02/22 07:10:06;;;;;;;9.07;3.30;;;5.30;99.90;;;;;;5060917;28;20435;-55
2022/02/22 07:12:32;;;;;;;9.70;3.50;;;5.90;99.90;;;;;;5070061;28;20383;-52
2022/02/22 07:14:58;;;;;;;10.90;3.30;;;6.60;99.90;;;;;;5070829;28;20726;-53
2022/02/22 07:17:24;;;;;;;10.83;3.07;;;8.50;99.90;;;;;;5066468;28;20491;-53
2022/02/22 07:19:51;;;;;;;12.68;3.13;;;6.80;99.90;;;;;;5050272;28;20874;-55
2022/02/22 07:22:17;;;;;;;8.30;3.75;;;6.60;99.90;;;;;;5067771;28;20379;-55
2022/02/22 07:24:42;;;;;;;11.43;3.50;;;6.10;99.90;;;;;;5052341;28;20501;-55
2022/02/22 07:27:08;;;;;;;8.70;3.17;;;5.90;99.90;;;;;;5059435;28;20899;-55
2022/02/22 07:29:34;;;;;;;10.10;3.42;;;5.80;99.90;;;;;;5059859;28;20426;-56
2022/02/22 07:32:00;;;;;;;11.40;3.28;;;6.00;99.90;;;;;;5052962;28;20922;-55
2022/02/22 07:34:25;;;;;;;11.40;3.63;;;5.90;99.90;;;;;;5065004;28;20939;-55
2022/02/22 07:36:51;;;;;;;8.50;3.40;;;5.70;99.90;;;;;;5049694;28;20519;-55
2022/02/22 07:39:17;;;;;;;9.05;3.95;;;5.60;99.90;;;;;;5054851;28;20391;-55
2022/02/22 07:41:43;;;;;;;11.90;3.43;;;6.40;99.90;;;;;;5057516;28;20406;-54
2022/02/22 07:44:08;;;;;;;8.55;3.80;;;5.80;99.90;;;;;;5066331;28;20409;-55
2022/02/22 07:46:34;;;;;;;14.53;3.87;;;6.10;99.90;;;;;;5051448;28;20392;-55
2022/02/22 07:48:59;;;;;;;13.50;3.30;;;6.10;99.90;;;;;;5070325;28;20396;-55
2022/02/22 07:51:25;;;;;;;13.23;3.67;;;6.10;99.90;;;;;;5069017;28;20404;-55
2022/02/22 07:53:51;;;;;;;9.77;3.10;;;5.90;99.90;;;;;;5070011;28;20387;-55
2022/02/22 07:56:17;;;;;;;10.57;3.17;;;6.00;99.90;;;;;;5070354;28;20441;-56
2022/02/22 07:58:43;;;;;;;11.25;2.92;;;6.10;99.90;;;;;;5069513;28;20869;-55
2022/02/22 08:01:11;;;;;;;10.77;3.17;;;6.30;99.90;;;;;;5069879;28;20418;-55
2022/02/22 08:03:38;;;;;;;10.95;2.63;;;6.60;99.90;;;;;;5067272;28;20909;-53
2022/02/22 08:06:04;;;;;;;10.15;3.38;;;6.70;99.90;;;;;;5050926;28;20384;-54
2022/02/22 08:08:30;;;;;;;8.00;2.70;;;6.80;99.90;;;;;;5060079;28;20451;-56
2022/02/22 08:10:55;;;;;;;11.88;4.00;;;6.60;99.90;;;;;;5069726;28;20403;-53
2022/02/22 08:13:21;;;;;;;10.47;2.40;;;6.90;99.90;;;;;;5068335;28;20461;-57
2022/02/22 08:15:47;;;;;;;14.55;3.47;;;7.10;99.90;;;;;;5069199;28;20387;-54
2022/02/22 08:18:13;;;;;;;14.50;3.42;;;7.40;99.90;;;;;;5069167;28;20754;-55
2022/02/22 08:20:41;;;;;;;10.47;2.73;;;8.70;99.90;;;;;;5068896;28;20399;-55
2022/02/22 08:23:07;;;;;;;10.80;2.80;;;9.20;99.90;;;;;;5069192;28;20737;-56
2022/02/22 08:25:33;;;;;;;15.30;3.63;;;9.40;99.90;;;;;;5062259;28;20796;-56
2022/02/22 08:27:59;;;;;;;9.90;2.53;;;9.70;99.90;;;;;;5052958;28;20439;-55
2022/02/22 08:30:25;;;;;;;14.23;3.00;;;9.80;99.90;;;;;;5048514;28;20786;-56
2022/02/22 08:32:51;;;;;;;11.98;3.40;;;9.70;99.90;;;;;;5058232;28;20872;-55
2022/02/22 08:35:17;;;;;;;9.80;3.10;;;;;;;;;;5074323;28;20403;-56
2022/02/22 08:37:42;;;;;;;9.65;2.58;;;10.20;99.90;;;;;;5068996;28;20387;-56
2022/02/22 08:40:09;;;;;;;15.50;3.10;;;10.20;99.90;;;;;;5051180;28;20519;-56
2022/02/22 08:42:34;;;;;;;10.32;2.90;;;10.80;99.90;;;;;;5050711;28;20388;-56
2022/02/22 08:45:00;;;;;;;13.00;3.20;;;11.10;99.90;;;;;;5069063;28;20392;-55
2022/02/22 08:47:26;;;;;;;12.67;3.47;;;10.90;99.90;;;;;;5068962;28;20392;-56
2022/02/22 08:49:51;;;;;;;10.18;2.75;;;10.50;99.90;;;;;;5069531;28;20430;-56
2022/02/22 08:52:17;;;;;;;9.77;2.30;;;10.30;99.90;;;;;;5069223;28;20391;-56
2022/02/22 08:54:43;;;;;;;9.90;2.50;;;9.80;99.90;;;;;;5068749;28;20471;-53
2022/02/22 08:57:09;;;;;;;10.07;2.10;;;9.40;99.90;;;;;;5069282;28;20935;-53
2022/02/22 08:59:35;;;;;;;10.25;2.85;;;9.00;99.90;;;;;;5069838;28;20395;-53
2022/02/22 09:02:01;;;;;;;9.27;2.17;;;8.40;99.90;;;;;;5051382;28;20422;-53
2022/02/22 09:04:27;;;;;;;12.10;2.60;;;7.80;99.90;;;;;;5088529;28;20855;-54
2022/02/22 09:06:53;;;;;;;11.60;2.90;;;7.90;99.90;;;;;;5088879;28;20374;-53
2022/02/22 09:09:18;;;;;;;13.18;2.70;;;7.60;99.90;;;;;;5089090;28;20374;-53
2022/02/22 09:11:44;;;;;;;12.57;2.43;;;9.60;99.90;;;;;;5088269;28;20401;-54
2022/02/22 09:14:10;;;;;;;10.07;2.70;;;7.40;99.90;;;;;;5078251;28;20742;-53
2022/02/22 09:16:35;;;;;;;7.97;2.50;;;7.50;99.90;;;;;;5070842;28;20548;-54
2022/02/22 09:19:01;;;;;;;10.48;2.20;;;7.20;99.90;;;;;;5073305;28;20387;-53
2022/02/22 09:21:27;;;;;;;8.25;1.80;;;7.30;99.90;;;;;;5054058;28;20411;-53
2022/02/22 09:23:53;;;;;;;11.40;2.80;;;7.40;99.90;;;;;;5072666;28;20387;-56
2022/02/22 09:26:19;;;;;;;8.25;2.25;;;7.50;99.90;;;;;;5072947;28;20873;-53
2022/02/22 09:28:45;;;;;;;10.23;2.60;;;7.40;99.90;;;;;;5071790;28;20402;-53
2022/02/22 09:31:11;;;;;;;14.27;3.00;;;7.30;99.90;;;;;;5072723;28;20973;-54
2022/02/22 09:33:37;;;;;;;9.93;2.63;;;7.40;99.90;;;;;;5071874;28;20375;-53
2022/02/22 09:36:03;;;;;;;10.65;2.33;;;7.40;99.90;;;;;;5072671;28;20837;-53
2022/02/22 09:38:29;;;;;;;11.18;2.50;;;7.20;99.90;;;;;;5071768;28;20383;-53
2022/02/22 09:40:57;;;;;;;8.03;1.90;;;7.20;99.90;;;;;;5072403;28;20399;-53
2022/02/22 09:43:22;;;;;;;14.52;2.90;;;7.10;99.90;;;;;;5072017;28;20376;-56
2022/02/22 09:45:49;;;;;;;12.48;2.70;;;8.20;99.90;;;;;;5072468;28;20382;-53
2022/02/22 09:48:14;;;;;;;10.13;2.50;;;7.90;99.90;;;;;;5072760;28;20390;-52
2022/02/22 09:50:40;;;;;;;11.55;2.70;;;7.10;99.90;;;;;;5071791;28;20415;-53
2022/02/22 09:53:06;;;;;;;8.60;2.27;;;7.40;99.90;;;;;;5072067;28;20386;-53
2022/02/22 09:55:32;;;;;;;12.27;2.17;;;7.30;99.90;;;;;;5071688;28;20440;-53
2022/02/22 09:57:57;;;;;;;12.13;3.20;;;7.50;99.90;;;;;;5072192;28;20380;-53
2022/02/22 10:00:31;;;;;;;18.20;4.15;;;7.70;99.90;;;;;;5071806;28;20380;-57
2022/02/22 10:02:56;;;;;;;11.70;2.80;;;7.70;99.90;;;;;;5072250;28;20405;-52
2022/02/22 10:05:24;;;;;;;11.70;3.50;;;7.80;99.90;;;;;;5072004;28;20801;-56
2022/02/22 10:08:03;;;;;;;9.93;2.38;;;7.90;99.90;;;;;;5071963;28;20480;-53
2022/02/22 10:10:39;;;;;;;12.93;3.28;;;7.90;99.90;;;;;;5071290;28;21196;-53
2022/02/22 10:13:06;;;;;;;11.00;2.65;;;7.90;99.90;;;;;;5071649;28;20391;-53
2022/02/22 10:15:41;;;;;;;7.30;2.40;;;7.80;99.90;;;;;;5071107;28;20372;-54
2022/02/22 10:18:08;;;;;;;10.02;2.80;;;8.00;99.90;;;;;;5071839;28;20729;-53
2022/02/22 10:20:34;;;;;;;14.77;2.85;;;8.00;99.90;;;;;;5071027;28;20418;-56
2022/02/22 10:23:02;;;;;;;9.02;2.40;;;8.00;99.90;;;;;;5053806;28;20706;-53
2022/02/22 10:25:28;;;;;;;11.80;2.70;;;8.10;99.90;;;;;;5070667;28;20845;-54
2022/02/22 10:27:58;;;;;;;12.93;2.90;;;8.30;99.90;;;;;;5070862;28;20368;-54
2022/02/22 10:30:43;;;;;;;12.93;3.30;;;8.30;99.90;;;;;;5071284;28;20873;-57
2022/02/22 10:33:20;;;;;;;9.77;2.47;;;8.30;99.90;;;;;;5071850;28;20411;-53
2022/02/22 10:35:51;;;;;;;11.63;2.40;;;8.30;99.90;;;;;;5070921;28;20380;-53
2022/02/22 10:38:23;;;;;;;9.55;3.17;;;8.40;99.90;;;;;;5071698;28;20663;-53
2022/02/22 10:41:15;;;;;;;9.02;2.60;;;8.40;99.90;;;;;;5070978;28;20538;-53
2022/02/22 10:43:52;;;;;;;15.60;2.88;;;8.80;99.90;;;;;;5067226;28;20396;-53
2022/02/22 10:46:28;;;;;;;14.95;3.47;;;9.00;99.90;;;;;;5071230;28;20383;-53
2022/02/22 10:49:09;;;;;;;10.05;2.92;;;8.90;99.90;;;;;;5071173;28;20396;-54
2022/02/22 10:51:41;;;;;;;11.23;2.75;;;9.00;99.90;;;;;;5070561;28;20510;-53
2022/02/22 10:54:08;;;;;;;14.38;2.95;;;9.00;99.90;;;;;;5071344;28;20387;-53
2022/02/22 10:56:35;;;;;;;14.50;3.00;;;9.00;99.90;;;;;;5070357;28;20462;-53
2022/02/22 10:59:04;;;;;;;12.02;3.40;;;8.80;99.90;;;;;;5071080;28;20402;-53
2022/02/22 11:01:30;;;;;;;13.70;3.17;;;8.70;99.90;;;;;;5070516;28;20434;-53
2022/02/22 11:03:57;;;;;;;8.38;2.70;;;8.80;99.90;;;;;;5070599;28;20526;-53
2022/02/22 11:06:23;;;;;;;14.10;4.20;;;8.40;99.90;;;;;;5070856;28;20375;-57
2022/02/22 11:08:51;;;;;;;11.90;3.88;;;8.20;99.90;;;;;;5070385;28;20383;-53
2022/02/22 11:11:27;;;;;;;9.50;3.47;;;8.10;99.90;;;;;;5070686;28;20412;-53
2022/02/22 11:14:01;;;;;;;15.45;3.22;;;7.90;99.90;;;;;;5070857;28;20574;-53
2022/02/22 11:16:40;;;;;;;14.05;3.58;;;8.10;99.90;;;;;;5070006;28;20387;-55
2022/02/22 11:19:36;;;;;;;11.48;2.80;;;8.10;99.90;;;;;;5070449;28;20486;-53
2022/02/22 11:22:17;;;;;;;17.45;3.15;;;8.30;99.90;;;;;;5069247;28;20962;-54
2022/02/22 11:24:49;;;;;;;11.02;2.92;;;7.90;99.90;;;;;;5069665;28;21190;-53
2022/02/22 11:27:33;;;;;;;15.45;4.20;;;8.00;99.90;;;;;;5070317;28;20387;-53
2022/02/22 11:30:06;;;;;;;11.65;3.08;;;8.20;99.90;;;;;;5070905;28;20388;-53
2022/02/22 11:32:32;;;;;;;17.00;3.85;;;8.30;99.90;;;;;;5070036;28;20444;-53
2022/02/22 11:35:09;;;;;;;9.55;3.53;;;8.40;99.90;;;;;;5070280;28;20376;-53
2022/02/22 11:37:35;;;;;;;10.95;3.38;;;8.50;99.90;;;;;;5069791;28;20384;-53
2022/02/22 11:40:01;;;;;;;11.63;3.43;;;8.60;99.90;;;;;;5069503;28;20378;-53
2022/02/22 11:42:31;;;;;;;14.25;3.75;;;8.20;99.90;;;;;;5069269;28;20383;-54
2022/02/22 11:45:06;;;;;;;11.20;2.80;;;8.30;99.90;;;;;;5070070;28;20463;-53
2022/02/22 11:47:34;;;;;;;13.45;3.92;;;8.20;99.90;;;;;;5051442;28;20877;-53
2022/02/22 11:50:00;;;;;;;11.15;3.80;;;8.20;99.90;;;;;;5070033;28;20372;-53
2022/02/22 11:52:47;;;;;;;11.90;3.45;;;8.10;99.90;;;;;;5069314;28;20920;-57
2022/02/22 11:55:17;;;;;;;13.18;3.78;;;8.20;99.90;;;;;;5069951;28;20379;-53
2022/02/22 11:57:51;;;;;;;12.87;3.30;;;8.40;99.90;;;;;;5069363;28;20396;-53
2022/02/22 12:00:19;;;;;;;14.00;3.35;;;8.60;99.90;;;;;;5069991;28;20854;-53
2022/02/22 12:02:45;;;;;;;14.73;3.70;;;8.70;99.90;;;;;;5069076;28;20386;-53
2022/02/22 12:05:24;;;;;;;13.95;3.92;;;8.70;99.90;;;;;;5069684;28;20376;-53
2022/02/22 12:08:04;;;;;;;11.70;3.50;;;8.70;99.90;;;;;;5069280;28;20394;-54
2022/02/22 12:10:32;;;;;;;14.55;3.58;;;8.80;99.90;;;;;;5068904;28;20752;-53
2022/02/22 12:13:15;;;;;;;12.98;3.55;;;9.00;99.90;;;;;;5069753;28;20388;-55
2022/02/22 12:15:42;;;;;;;13.02;3.60;;;9.10;99.90;;;;;;5068666;28;20739;-53
2022/02/22 12:18:18;;;;;;;17.10;3.90;;;9.20;99.90;;;;;;5069769;28;20406;-53
2022/02/22 12:20:45;;;;;;;9.90;2.90;;;9.30;99.90;;;;;;5050626;28;21089;-55
2022/02/22 12:23:16;;;;;;;13.30;3.30;;;9.50;99.90;;;;;;5070291;28;20387;-56
2022/02/22 12:25:42;;;;;;;10.00;3.90;;;9.80;99.90;;;;;;5069190;28;20375;-56
2022/02/22 12:28:07;;;;;;;15.15;3.67;;;10.10;99.90;;;;;;5069474;28;20801;-55
2022/02/22 12:30:39;;;;;;;11.63;2.83;;;10.30;99.90;;;;;;5068838;28;20407;-55
2022/02/22 12:33:06;;;;;;;13.00;3.00;;;10.60;99.90;;;;;;5069975;28;20418;-56
2022/02/22 12:35:44;;;;;;;8.90;3.25;;;10.70;99.90;;;;;;5068482;28;20396;-55
2022/02/22 12:38:26;;;;;;;15.98;2.90;;;10.60;99.90;;;;;;5069854;28;20376;-56
2022/02/22 12:40:52;;;;;;;9.57;2.60;;;10.30;99.90;;;;;;5051341;28;20403;-55
2022/02/22 12:43:20;;;;;;;15.50;3.70;;;10.00;99.90;;;;;;5069302;28;20372;-57
2022/02/22 12:45:51;;;;;;;8.10;2.03;;;10.20;99.90;;;;;;5068235;28;20380;-56
2022/02/22 12:48:19;;;;;;;11.90;3.03;;;10.70;99.90;;;;;;5066529;28;20590;-56
2022/02/22 12:50:55;;;;;;;15.20;3.30;;;10.60;99.90;;;;;;5069271;28;20406;-56
2022/02/22 12:53:31;;;;;;;11.60;2.75;;;10.70;99.90;;;;;;5070853;28;20803;-56